Tiempo atmosférico en la estación meteorológica de La Pobla de Benifassà-Fredes, Castelló/Castellón (1174 m.)



Fecha
DESCASC
Temp. máxima en grados centígrados (hora)
DESCASC
Temp. mínima en grados centígrados (hora)
DESCASC
Temp. media en grados centígrados
DESCASC
Racha de viento máxima en m/sg (hora)
DESCASC
Velocidad máxima media en intervalos de 10 minutos(hora)
DESCASC
Precipitaciones diarias en mm
DESCASC
Precipitaciones de 00:00 a 06:00 en mm
DESCASC
Precipitaciones de 06:00 a 12:00 en mm
DESCASC
Precipitaciones de 12:00 a 18:00 en mm
DESCASC
Precipitaciones de 18:00 a 24:00 en mm
DESCASC
28-02-2021 5.2 (00:00) 2.6 (22:10) 3.9 11.67 (13:20) 5.83 (23:10) 5.2 0 1.6 3.6 0
27-02-2021 11.6 (13:20) 3.7 (06:40) 7.7 7.5 (03:50) 5 (03:50) 0 0 0 0 0
26-02-2021 12.4 (12:50) 3.9 (04:20) 8.1 3.89 (19:30) 2.78 (19:40) 0 0 0 0 0
25-02-2021 9.5 (14:10) 2.4 (00:00) 6 6.11 (14:50) 2.78 (14:20) 0 0 0 0 0
24-02-2021 9.4 (15:10) 4.6 (00:00) 7 5.83 (00:30) 3.06 (15:40) 0 0 0 0 0
23-02-2021 9 (14:20) -0.5 (-00:0) 4.3 6.39 (12:20) 3.33 (23:00) 0.2 0 0 0.2 0
22-02-2021 6.9 (02:50) 1.3 (00:00) 4.1 23.06 (02:30) 10.28 (02:10) 10.2 10 0.2 0 0
21-02-2021 6.6 (21:30) 2.9 (00:00) 4.8 17.5 (14:20) 9.72 (14:30) 3.2 0 0 0.6 2.6
20-02-2021 12.5 (12:10) 3.1 (00:00) 7.8 8.06 (23:59) 3.89 (23:50) 0 0 0 0 0
19-02-2021 13.3 (13:00) 5.5 (00:00) 9.4 7.78 (05:10) 4.44 (05:30) 0 0 0 0 0
18-02-2021 15.5 (13:10) 6.5 (00:00) 11 6.94 (23:30) 4.17 (23:30) 0 0 0 0 0
17-02-2021 13.7 (12:20) 6.1 (00:00) 9.9 7.22 (03:10) 4.72 (03:00) 0 0 0 0 0
16-02-2021 15.2 (15:50) 0.6 (00:00) 7.9 5.56 (14:50) 2.78 (23:30) 0 0 0 0 0
15-02-2021 5 (12:50) 1.8 (00:00) 3.4 5 (13:00) 2.22 (14:30) 2.4 0.6 0.4 0.8 0.6
14-02-2021 5.3 (09:20) 1.2 (00:00) 3.3 10.83 (00:30) 6.67 (00:10) 4.4 0 0.4 2.4 1.6
13-02-2021 11.1 (13:40) 3.5 (00:00) 7.3 27.78 (00:10) 16.94 (00:30) 0 0 0 0 0
12-02-2021 11.2 (10:50) 4.7 (00:00) 7.9 27.78 (18:50) 16.67 (23:30) 6.8 0 0.6 6.2 0
11-02-2021 14.4 (14:40) 4.3 (00:00) 9.3 17.22 (09:20) 9.72 (00:10) 0 0 0 0 0
10-02-2021 7.2 (16:10) 2.2 (00:00) 4.7 19.72 (18:30) 11.11 (18:00) 1.2 0 1.2 0 0
09-02-2021 8.4 (18:00) 3.1 (00:00) 5.7 21.39 (03:00) 13.61 (03:00) 0.2 0.2 0 0 0
08-02-2021 7.6 (14:30) 2.9 (00:00) 5.3 19.17 (23:00) 10.28 (23:40) 3.2 0 3.2 0 0
07-02-2021 5.2 (14:00) -1.1 (-00:0) 2 21.39 (11:20) 13.33 (11:20) 0 0 0 0 0
06-02-2021 12.1 (12:20) 1.5 (00:00) 6.8 16.94 (23:59) 10.28 (23:59) 6.4 0 0 4.4 2
05-02-2021 12.3 (03:40) 4.9 (00:00) 8.6 8.33 (11:20) 4.17 (15:20) 0 0 0 0 0
04-02-2021 13.4 (12:00) 5.4 (00:00) 9.4 7.22 (12:50) 3.61 (12:40) 0 0 0 0 0
03-02-2021 13.9 (14:50) 6.7 (00:00) 10.3 8.33 (08:20) 4.44 (07:50) 0 0 0 0 0
02-02-2021 15 (15:40) 6.6 (00:00) 10.8 22.78 (00:40) 13.89 (00:20) 0 0 0 0 0
01-02-2021 12 (15:00) 5.7 (00:00) 8.8 26.39 (21:20) 15.28 (18:40) 0 0 0 0 0
31-01-2021 9.3 (16:50) 3 (00:00) 6.2 25.83 (14:20) 15 (13:20) 0 0 0 0 0
30-01-2021 10.7 (05:00) 2.8 (00:00) 6.7 22.5 (14:40) 12.78 (14:20) 3.2 0 0.2 0.8 2.2

Gráficas

Temp. máximas Temp. mínimas Temp. medias Precipitaciones Rachas de viento máximas Velocidades máximas media en intervalos de 10 minutos

Datos horarios

Fecha y hora oficial Temperatura (ºC) Velocidad del viento (km/h) Dirección del viento Racha (km/h) Dirección de racha Precipitación (mm) Presión (hPa) Tendencia (hPa) Humedad (%)
2021-02-28 23:00:00 2.8 19 Este 37 Este 0 -- -- 98
2021-02-28 22:00:00 2.7 16 Este 32 Este 0 -- -- 98
2021-02-28 21:00:00 2.9 16 Este 32 Este 0 -- -- 98
2021-02-28 20:00:00 3.2 14 Este 36 Este 0 -- -- 98
2021-02-28 19:00:00 3.4 12 Este 30 Este 0 -- -- 98
2021-02-28 18:00:00 3.5 14 Este 32 Este 0 -- -- 98
2021-02-28 17:00:00 3.8 14 Este 32 Este 0 -- -- 98
2021-02-28 16:00:00 3.6 16 Este 35 Este 0 -- -- 98
2021-02-28 15:00:00 3.7 17 Este 41 Este 0 -- -- 98
2021-02-28 14:00:00 3.6 20 Este 42 Este 0.2 -- -- 98
2021-02-28 13:00:00 3.3 14 Este 38 Nordeste 3.4 -- -- 97
2021-02-28 12:00:00 3.5 20 Este 39 Este 1.4 -- -- 97
2021-02-28 11:00:00 4.3 10 Este 22 Este 0.2 -- -- 97
2021-02-28 10:00:00 4.2 7 Sudeste 19 Sudeste 0 -- -- 97
2021-02-28 09:00:00 4.4 5 Sudeste 14 Sudeste 0 -- -- 97
2021-02-28 08:00:00 3.9 4 Sudeste 13 Sudeste 0 -- -- 97
2021-02-28 07:00:00 4 4 Sudeste 21 Este 0 -- -- 97
2021-02-28 06:00:00 4.1 5 Este 19 Este 0 -- -- 97
2021-02-28 05:00:00 4.1 5 Sudeste 17 Este 0 -- -- 97
2021-02-28 04:00:00 3.9 8 Este 18 Este 0 -- -- 96
2021-02-28 03:00:00 4.2 6 Este 13 Este 0 -- -- 95
2021-02-28 02:00:00 4.8 3 Este 8 Este 0 -- -- 92
2021-02-28 01:00:00 5 3 Este 8 Este 0 -- -- 92
2021-02-28 00:00:00 5.2 0 Calma 9 Este 0 -- -- 94
2021-02-27 23:00:00 5.4 3 Este 8 Este 0 -- -- 92
2021-02-27 22:00:00 5.4 2 Este 8 Nordeste 0 -- -- 93
2021-02-27 21:00:00 4 3 Norte 6 Norte 0 -- -- 93
2021-02-27 20:00:00 4.5 2 Norte 5 Noroeste 0 -- -- 91
2021-02-27 19:00:00 5.8 0 Calma 4 Sudeste 0 -- -- 87
2021-02-27 18:00:00 7.9 3 Este 11 Este 0 -- -- 83
2021-02-27 17:00:00 9.3 5 Este 12 Este 0 -- -- 78
2021-02-27 16:00:00 10.7 6 Este 17 Este 0 -- -- 71
2021-02-27 15:00:00 11.4 8 Este 19 Este 0 -- -- 65
2021-02-27 14:00:00 11.2 9 Este 19 Este 0 -- -- 67
2021-02-27 13:00:00 11.1 5 Sur 16 Sudeste 0 -- -- 61
2021-02-27 12:00:00 9.4 5 Oeste 17 Oeste 0 -- -- 67
2021-02-27 11:00:00 7.6 9 Oeste 20 Oeste 0 -- -- 80
2021-02-27 10:00:00 6 12 Oeste 22 Oeste 0 -- -- 88
2021-02-27 09:00:00 5.3 13 Oeste 23 Oeste 0 -- -- 96
2021-02-27 08:00:00 3.9 14 Oeste 23 Oeste 0 -- -- 96
2021-02-27 07:00:00 3.9 16 Oeste 26 Oeste 0 -- -- 96
2021-02-27 06:00:00 4 16 Oeste 26 Oeste 0 -- -- 95
2021-02-27 05:00:00 4.1 15 Oeste 25 Oeste 0 -- -- 95
2021-02-27 04:00:00 4.2 16 Oeste 27 Oeste 0 -- -- 95
2021-02-27 03:00:00 4.5 12 Oeste 19 Oeste 0 -- -- 90
2021-02-27 02:00:00 4.9 11 Oeste 16 Oeste 0 -- -- 84
2021-02-27 01:00:00 4.9 10 Oeste 15 Oeste 0 -- -- 83
2021-02-27 00:00:00 5.1 10 Oeste 14 Oeste 0 -- -- 79
2021-02-26 23:00:00 4.9 8 Oeste 13 Oeste 0 -- -- 78
2021-02-26 22:00:00 5.5 9 Oeste 13 Oeste 0 -- -- 87
2021-02-26 21:00:00 6 8 Oeste 12 Oeste 0 -- -- 92
2021-02-26 20:00:00 6.5 8 Oeste 14 Oeste 0 -- -- 92
2021-02-26 19:00:00 7.7 8 Oeste 12 Oeste 0 -- -- 88
2021-02-26 18:00:00 10.2 5 Oeste 10 Oeste 0 -- -- 79
2021-02-26 17:00:00 11 2 Sudeste 6 Sudeste 0 -- -- 78
2021-02-26 16:00:00 11.6 4 Este 9 Sudeste 0 -- -- 73
2021-02-26 15:00:00 12.3 6 Sudeste 12 Sudeste 0 -- -- 69
2021-02-26 14:00:00 12.2 6 Sudeste 12 Sudeste 0 -- -- 66
2021-02-26 13:00:00 12.3 6 Sudeste 12 Sudeste 0 -- -- 57
2021-02-26 12:00:00 11.1 4 Sudeste 9 Este 0 -- -- 66
2021-02-26 11:00:00 11.1 5 Este 12 Este 0 -- -- 67
2021-02-26 10:00:00 10.1 5 Este 10 Sudeste 0 -- -- 65
2021-02-26 09:00:00 6.4 2 Este 5 Oeste 0 -- -- 84
2021-02-26 08:00:00 4.1 4 Oeste 6 Oeste 0 -- -- 87
2021-02-26 07:00:00 4.4 2 Norte 3 Norte 0 -- -- 88
2021-02-26 06:00:00 4.3 0 Calma 2 Sudeste 0 -- -- 88
2021-02-26 05:00:00 4.3 0 Calma 2 Oeste 0 -- -- 84
2021-02-26 04:00:00 4 0 Calma 4 Sudeste 0 -- -- 82
2021-02-26 03:00:00 4.3 0 Calma 5 Este 0 -- -- 81
2021-02-26 02:00:00 4.2 0 Calma 3 Sudeste 0 -- -- 82
2021-02-26 01:00:00 4.6 0 Calma 4 Sur 0 -- -- 81
2021-02-26 00:00:00 5 3 Sur 6 Sudeste 0 -- -- 82
2021-02-25 23:00:00 4.4 3 Sur 6 Sur 0 -- -- 96
2021-02-25 22:00:00 5.1 2 Sur 6 Sur 0 -- -- 95
2021-02-25 21:00:00 6.1 6 Sur 12 Sur 0 -- -- 78
2021-02-25 20:00:00 4.8 3 Sudoeste 5 Sudoeste 0 -- -- 94
2021-02-25 19:00:00 6.9 2 Sudeste 5 Este 0 -- -- 94
2021-02-25 18:00:00 7.9 3 Sudeste 10 Este 0 -- -- 91
2021-02-25 17:00:00 8.4 3 Sudeste 13 Este 0 -- -- 91
2021-02-25 16:00:00 8.4 5 Este 15 Este 0 -- -- 89
2021-02-25 15:00:00 9.2 7 Este 22 Este 0 -- -- 84
2021-02-25 14:00:00 9.3 8 Este 18 Este 0 -- -- 80
2021-02-25 13:00:00 8.3 8 Este 18 Este 0 -- -- 81
2021-02-25 12:00:00 8.8 9 Este 19 Este 0 -- -- 78
2021-02-25 11:00:00 7.8 9 Este 17 Este 0 -- -- 81
2021-02-25 10:00:00 6.7 7 Este 17 Este 0 -- -- 84
2021-02-25 09:00:00 4.6 4 Este 9 Este 0 -- -- 97
2021-02-25 08:00:00 2.4 0 Calma 15 Sudeste 0 -- -- 95
2021-02-25 07:00:00 3.5 2 Sudeste 13 Sudeste 0 -- -- 96
2021-02-25 06:00:00 3.7 3 Este 12 Sudeste 0 -- -- 96
2021-02-25 05:00:00 3.9 3 Sudeste 10 Sudeste 0 -- -- 96
2021-02-25 04:00:00 4 3 Sudeste 14 Este 0 -- -- 96
2021-02-25 03:00:00 4.1 3 Sudeste 16 Sudeste 0 -- -- 96
2021-02-25 02:00:00 4.3 3 Sudeste 18 Sudeste 0 -- -- 97
2021-02-25 01:00:00 4.4 5 Sudeste 20 Este 0 -- -- 97
2021-02-25 00:00:00 4.6 4 Sudeste 17 Sudeste 0 -- -- 97
2021-02-24 23:00:00 4.7 3 Sudeste 14 Este 0 -- -- 96
2021-02-24 22:00:00 4.7 3 Sudeste 15 Este 0 -- -- 96
2021-02-24 21:00:00 5 5 Sudeste 14 Sudeste 0 -- -- 97
2021-02-24 20:00:00 5.4 4 Este 14 Sudeste 0 -- -- 96
2021-02-24 19:00:00 5.8 3 Sudeste 11 Este 0 -- -- 95
2021-02-24 18:00:00 6.3 5 Sudeste 19 Este 0 -- -- 95
2021-02-24 17:00:00 6.9 6 Este 21 Este 0 -- -- 96
2021-02-24 16:00:00 7.6 10 Este 19 Este 0 -- -- 93
2021-02-24 15:00:00 9.3 9 Este 15 Este 0 -- -- 85
2021-02-24 14:00:00 7.6 4 Este 13 Este 0 -- -- 97
2021-02-24 13:00:00 6.9 6 Este 13 Sudeste 0 -- -- 98
2021-02-24 12:00:00 6.5 5 Este 14 Este 0 -- -- 98
2021-02-24 11:00:00 6.3 6 Este 19 Este 0 -- -- 98
2021-02-24 10:00:00 6.2 5 Sudeste 13 Este 0 -- -- 98
2021-02-24 09:00:00 5.7 5 Este 13 Este 0 -- -- 98
2021-02-24 08:00:00 5.3 5 Este 13 Este 0 -- -- 98
2021-02-24 07:00:00 5.3 4 Este 10 Este 0 -- -- 98
2021-02-24 06:00:00 5.6 5 Este 15 Este 0 -- -- 98
2021-02-24 05:00:00 5.8 5 Este 17 Este 0 -- -- 98
2021-02-24 04:00:00 5.9 6 Este 14 Este 0 -- -- 98
2021-02-24 03:00:00 6.1 5 Este 15 Este 0 -- -- 98
2021-02-24 02:00:00 6.1 6 Este 18 Este 0 -- -- 98
2021-02-24 01:00:00 6.1 8 Este 21 Este 0 -- -- 97
2021-02-24 00:00:00 6.1 6 Este 20 Este 0 -- -- 97
2021-02-23 23:00:00 6 12 Este 22 Este 0 -- -- 97
2021-02-23 22:00:00 5.6 8 Este 18 Este 0 -- -- 97
2021-02-23 21:00:00 5.4 8 Este 15 Este 0 -- -- 95
2021-02-23 20:00:00 6 6 Este 10 Este 0 -- -- 95
2021-02-23 19:00:00 6.4 0 Calma 8 Este 0 -- -- 94
2021-02-23 18:00:00 6.9 4 Este 11 Este 0 -- -- 87
2021-02-23 17:00:00 8.1 5 Este 13 Este 0 -- -- 77
2021-02-23 16:00:00 8.8 5 Este 16 Este 0 -- -- 73
2021-02-23 15:00:00 8.2 6 Este 19 Sudeste 0.2 -- -- 80
2021-02-23 14:00:00 8.5 6 Este 18 Este 0 -- -- 75
2021-02-23 13:00:00 7.2 4 Este 23 Este 0 -- -- 85
2021-02-23 12:00:00 7.4 8 Este 22 Este 0 -- -- 94
2021-02-23 11:00:00 5.8 10 Este 19 Este 0 -- -- 96
2021-02-23 10:00:00 5.9 7 Este 17 Sudeste 0 -- -- 99
2021-02-23 09:00:00 4.3 5 Este 12 Este 0 -- -- 99
2021-02-23 08:00:00 1.9 4 Nordeste 10 Nordeste 0 -- -- 99
2021-02-23 07:00:00 1.3 3 Nordeste 9 Nordeste 0 -- -- 98
2021-02-23 06:00:00 1.1 5 Este 9 Este 0 -- -- 99
2021-02-23 05:00:00 1.4 7 Nordeste 13 Nordeste 0 -- -- 99
2021-02-23 04:00:00 -0.2 7 Oeste 12 Oeste 0 -- -- 99
2021-02-23 03:00:00 0.1 2 Norte 10 Oeste 0 -- -- 98
2021-02-23 02:00:00 1 3 Nordeste 11 Oeste 0 -- -- 99
2021-02-23 01:00:00 1 7 Oeste 12 Oeste 0 -- -- 99
2021-02-23 00:00:00 1.5 9 Oeste 17 Oeste 0 -- -- 98
2021-02-22 23:00:00 1.3 10 Oeste 20 Oeste 0 -- -- 98
2021-02-22 22:00:00 2.2 12 Oeste 23 Oeste 0 -- -- 98
2021-02-22 21:00:00 2.4 12 Noroeste 22 Oeste 0 -- -- 98
2021-02-22 20:00:00 2.4 9 Noroeste 22 Noroeste 0 -- -- 98
2021-02-22 19:00:00 2.5 11 Oeste 20 Oeste 0 -- -- 98
2021-02-22 18:00:00 2.7 11 Noroeste 20 Oeste 0 -- -- 98
2021-02-22 17:00:00 3.2 9 Oeste 18 Oeste 0 -- -- 98
2021-02-22 16:00:00 2.8 11 Oeste 22 Oeste 0 -- -- 99
2021-02-22 15:00:00 2.7 13 Oeste 22 Noroeste 0 -- -- 98
2021-02-22 14:00:00 2.7 10 Oeste 21 Oeste 0 -- -- 98
2021-02-22 13:00:00 3.5 9 Noroeste 16 Noroeste 0 -- -- 98
2021-02-22 12:00:00 4 9 Noroeste 21 Noroeste 0 -- -- 98
2021-02-22 11:00:00 5.1 5 Norte 13 Nordeste 0 -- -- 98
2021-02-22 10:00:00 5.2 5 Este 12 Nordeste 0 -- -- 98
2021-02-22 09:00:00 4.8 4 Nordeste 19 Este 0 -- -- 98
2021-02-22 08:00:00 5.1 9 Este 19 Este 0 -- -- 98
2021-02-22 07:00:00 4.4 5 Este 19 Nordeste 0.2 -- -- 98
2021-02-22 06:00:00 4.3 8 Este 21 Este 0 -- -- 98
2021-02-22 05:00:00 3.9 6 Sudeste 17 Sudeste 0 -- -- 98
2021-02-22 04:00:00 4.2 5 Sudeste 60 Nordeste 2.4 -- -- 98
2021-02-22 03:00:00 6.8 35 Este 83 Este 7.2 -- -- 98
2021-02-22 02:00:00 6.8 28 Este 58 Este 0 -- -- 98
2021-02-22 01:00:00 6.5 21 Este 48 Este 0.4 -- -- 98
2021-02-22 00:00:00 6.6 22 Este 48 Este 0.8 -- -- 98
2021-02-21 23:00:00 6.5 11 Nordeste 43 Nordeste 0.4 -- -- 98
2021-02-21 22:00:00 6.5 23 Este 48 Este 1 -- -- 98
2021-02-21 21:00:00 6.5 20 Este 58 Este 0.4 -- -- 98
2021-02-21 20:00:00 6.3 22 Este 54 Sudeste 0 -- -- 98
2021-02-21 19:00:00 6.2 31 Este 61 Este 0 -- -- 98
2021-02-21 18:00:00 6.1 26 Este 62 Sudeste 0 -- -- 98
2021-02-21 17:00:00 6 24 Este 57 Este 0 -- -- 98
2021-02-21 16:00:00 5.8 33 Este 58 Este 0 -- -- 98
2021-02-21 15:00:00 5.8 31 Este 63 Este 0.2 -- -- 98
2021-02-21 14:00:00 5.8 32 Este 59 Este 0.2 -- -- 98
2021-02-21 13:00:00 5.7 26 Este 62 Este 0.2 -- -- 98
2021-02-21 12:00:00 5.3 26 Este 55 Este 0 -- -- 98
2021-02-21 11:00:00 4.9 26 Este 51 Este 0 -- -- 98
2021-02-21 10:00:00 4.5 23 Este 47 Este 0 -- -- 98
2021-02-21 09:00:00 4.2 21 Este 49 Este 0 -- -- 98
2021-02-21 08:00:00 3.8 22 Este 40 Este 0 -- -- 97
2021-02-21 07:00:00 3.6 18 Este 32 Este 0 -- -- 97
2021-02-21 06:00:00 3.5 12 Este 23 Este 0 -- -- 97
2021-02-21 05:00:00 3.5 11 Este 28 Este 0 -- -- 97
2021-02-21 04:00:00 3.4 15 Este 32 Este 0 -- -- 97
2021-02-21 03:00:00 3.2 13 Este 30 Este 0 -- -- 97
2021-02-21 02:00:00 2.9 14 Este 31 Este 0 -- -- 97
2021-02-21 01:00:00 3.1 12 Este 29 Este 0 -- -- 97
2021-02-21 00:00:00 3.1 14 Este 29 Este 0 -- -- 96
2021-02-20 23:00:00 3.2 12 Este 23 Este 0 -- -- 96
2021-02-20 22:00:00 3.3 12 Este 22 Este 0 -- -- 96
2021-02-20 21:00:00 3.6 11 Este 22 Este 0 -- -- 95
2021-02-20 20:00:00 3.9 9 Sudeste 24 Este 0 -- -- 94
2021-02-20 19:00:00 4.5 9 Sudeste 20 Sudeste 0 -- -- 94
2021-02-20 18:00:00 5.1 7 Este 19 Este 0 -- -- 92
2021-02-20 17:00:00 5.6 9 Este 26 Este 0 -- -- 90
2021-02-20 16:00:00 6.9 11 Este 21 Este 0 -- -- 86
2021-02-20 15:00:00 9 9 Este 18 Este 0 -- -- 76
2021-02-20 14:00:00 10.1 9 Este 20 Este 0 -- -- 72
2021-02-20 13:00:00 11.6 9 Este 23 Sudeste 0 -- -- 65
2021-02-20 12:00:00 12 8 Este 21 Sudeste 0 -- -- 56
2021-02-20 11:00:00 11.6 7 Sudeste 18 Este 0 -- -- 49
2021-02-20 10:00:00 11.9 9 Sudeste 21 Sudeste 0 -- -- 42
2021-02-20 09:00:00 9.6 5 Sudeste 16 Sudeste 0 -- -- 50
2021-02-20 08:00:00 6.8 4 Sudeste 18 Sudeste 0 -- -- 51
2021-02-20 07:00:00 6 3 Sudeste 13 Sudeste 0 -- -- 56
2021-02-20 06:00:00 5.6 2 Sudeste 8 Sudeste 0 -- -- 59
2021-02-20 05:00:00 7.3 3 Sudeste 16 Sur 0 -- -- 49
2021-02-20 04:00:00 8.9 5 Sudeste 15 Sur 0 -- -- 45
2021-02-20 03:00:00 8.9 5 Sudeste 14 Sur 0 -- -- 47
2021-02-20 02:00:00 8.8 4 Sur 17 Sur 0 -- -- 48
2021-02-20 01:00:00 8.6 4 Sur 17 Sur 0 -- -- 50
2021-02-20 00:00:00 9 5 Sur 17 Sur 0 -- -- 53
2021-02-19 23:00:00 9.1 7 Sur 19 Sur 0 -- -- 50
2021-02-19 22:00:00 8.9 10 Sur 26 Sur 0 -- -- 47
2021-02-19 21:00:00 8.5 11 Sur 23 Sur 0 -- -- 45
2021-02-19 20:00:00 8.4 10 Sur 23 Sur 0 -- -- 48
2021-02-19 19:00:00 8 6 Sudeste 18 Sur 0 -- -- 58
2021-02-19 18:00:00 8.9 3 Sudeste 18 Nordeste 0 -- -- 65
2021-02-19 17:00:00 10.9 5 Sudeste 18 Nordeste 0 -- -- 59
2021-02-19 16:00:00 11.3 10 Este 24 Este 0 -- -- 56
2021-02-19 15:00:00 12.1 9 Este 23 Este 0 -- -- 50
2021-02-19 14:00:00 12.7 13 Este 27 Este 0 -- -- 42
2021-02-19 13:00:00 13.3 11 Este 24 Este 0 -- -- 40
2021-02-19 12:00:00 12.6 10 Este 22 Este 0 -- -- 41
2021-02-19 11:00:00 12.7 8 Este 15 Este 0 -- -- 38
2021-02-19 10:00:00 12.2 6 Este 14 Este 0 -- -- 35
2021-02-19 09:00:00 8.7 4 Sudoeste 15 Noroeste 0 -- -- 40
2021-02-19 08:00:00 5.5 10 Oeste 18 Oeste 0 -- -- 46
2021-02-19 07:00:00 5.5 13 Oeste 21 Oeste 0 -- -- 51
2021-02-19 06:00:00 6.4 13 Oeste 28 Oeste 0 -- -- 48
2021-02-19 05:00:00 6.8 14 Oeste 22 Oeste 0 -- -- 48
2021-02-19 04:00:00 7.2 13 Oeste 22 Oeste 0 -- -- 48
2021-02-19 03:00:00 7 13 Oeste 25 Oeste 0 -- -- 47
2021-02-19 02:00:00 7 14 Oeste 23 Oeste 0 -- -- 47
2021-02-19 01:00:00 7.1 14 Oeste 23 Oeste 0 -- -- 46
2021-02-19 00:00:00 7.3 14 Oeste 25 Oeste 0 -- -- 53
2021-02-18 23:00:00 7.4 13 Oeste 19 Oeste 0 -- -- 52
2021-02-18 22:00:00 7.3 10 Oeste 15 Oeste 0 -- -- 49
2021-02-18 21:00:00 7.3 2 Oeste 5 Oeste 0 -- -- 47
2021-02-18 20:00:00 9.1 3 Este 7 Nordeste 0 -- -- 41
2021-02-18 19:00:00 9 2 Nordeste 7 Noroeste 0 -- -- 48
2021-02-18 18:00:00 10.6 3 Noroeste 12 Nordeste 0 -- -- 46
2021-02-18 17:00:00 13 4 Este 12 Este 0 -- -- 52
2021-02-18 16:00:00 13.4 4 Sudeste 13 Este 0 -- -- 55
2021-02-18 15:00:00 14.7 7 Sudeste 14 Este 0 -- -- 47
2021-02-18 14:00:00 14.7 8 Este 17 Sudeste 0 -- -- 48
2021-02-18 13:00:00 15.4 5 Sudeste 18 Sudeste 0 -- -- 44
2021-02-18 12:00:00 15.1 5 Este 18 Este 0 -- -- 44
2021-02-18 11:00:00 14.1 7 Este 15 Este 0 -- -- 43
2021-02-18 10:00:00 13.4 5 Este 12 Este 0 -- -- 43
2021-02-18 09:00:00 10.4 4 Sudeste 9 Sudeste 0 -- -- 50
2021-02-18 08:00:00 7.5 3 Sur 9 Sudeste 0 -- -- 52
2021-02-18 07:00:00 7.6 0 Calma 8 Sur 0 -- -- 46
2021-02-18 06:00:00 9 5 Sur 10 Sur 0 -- -- 40
2021-02-18 05:00:00 9.1 4 Sur 13 Sur 0 -- -- 38
2021-02-18 04:00:00 9.1 8 Sur 17 Sur 0 -- -- 41
2021-02-18 03:00:00 7.5 5 Sudoeste 11 Sudoeste 0 -- -- 46
2021-02-18 02:00:00 6.8 6 Sudoeste 13 Sudoeste 0 -- -- 52
2021-02-18 01:00:00 7.2 5 Sudoeste 15 Sudoeste 0 -- -- 48
2021-02-18 00:00:00 8.3 7 Sudoeste 13 Sudoeste 0 -- -- 48
2021-02-17 23:00:00 8.1 6 Oeste 14 Sudoeste 0 -- -- 52
2021-02-17 22:00:00 7.3 8 Oeste 16 Sudoeste 0 -- -- 69
2021-02-17 21:00:00 6.1 6 Sudoeste 15 Sur 0 -- -- 80
2021-02-17 20:00:00 7 3 Sudeste 7 Sudeste 0 -- -- 82
2021-02-17 19:00:00 7.6 0 Calma 3 Este 0 -- -- 87
2021-02-17 18:00:00 9.2 2 Sudeste 12 Este 0 -- -- 85
2021-02-17 17:00:00 10.7 5 Este 12 Este 0 -- -- 80
2021-02-17 16:00:00 11 4 Este 15 Este 0 -- -- 79
2021-02-17 15:00:00 11.8 6 Este 15 Este 0 -- -- 72
2021-02-17 14:00:00 12 8 Este 19 Este 0 -- -- 67
2021-02-17 13:00:00 12.7 9 Este 21 Este 0 -- -- 56
2021-02-17 12:00:00 13.4 8 Este 17 Este 0 -- -- 55
2021-02-17 11:00:00 12.6 5 Sudoeste 11 Sudoeste 0 -- -- 49
2021-02-17 10:00:00 10.3 4 Oeste 10 Oeste 0 -- -- 57
2021-02-17 09:00:00 8.1 4 Oeste 14 Oeste 0 -- -- 67
2021-02-17 08:00:00 7 10 Oeste 19 Oeste 0 -- -- 70
2021-02-17 07:00:00 7 11 Oeste 20 Oeste 0 -- -- 69
2021-02-17 06:00:00 7.1 11 Oeste 16 Oeste 0 -- -- 70
2021-02-17 05:00:00 7 10 Oeste 17 Oeste 0 -- -- 70
2021-02-17 04:00:00 7.6 11 Oeste 26 Noroeste 0 -- -- 65
2021-02-17 03:00:00 7.9 17 Noroeste 25 Noroeste 0 -- -- 55
2021-02-17 02:00:00 8.4 13 Oeste 19 Noroeste 0 -- -- 48
2021-02-17 01:00:00 8.2 11 Oeste 17 Oeste 0 -- -- 51
2021-02-17 00:00:00 8 10 Oeste 15 Noroeste 0 -- -- 55
2021-02-16 23:00:00 9 9 Oeste 15 Oeste 0 -- -- 50
2021-02-16 22:00:00 9.7 8 Oeste 18 Sudoeste 0 -- -- 45
2021-02-16 21:00:00 10 7 Oeste 13 Oeste 0 -- -- 48
2021-02-16 20:00:00 9.3 5 Oeste 13 Oeste 0 -- -- 57
2021-02-16 19:00:00 10 5 Oeste 10 Oeste 0 -- -- 59
2021-02-16 18:00:00 13 4 Oeste 12 Oeste 0 -- -- 50
2021-02-16 17:00:00 14.6 6 Sudoeste 14 Oeste 0 -- -- 49
2021-02-16 16:00:00 15 6 Sudoeste 19 Oeste 0 -- -- 65
2021-02-16 15:00:00 14.2 4 Sudeste 20 Oeste 0 -- -- 69
2021-02-16 14:00:00 13 3 Sudeste 9 Este 0 -- -- 76
2021-02-16 13:00:00 12.4 4 Este 8 Este 0 -- -- 78
2021-02-16 12:00:00 13.4 3 Noroeste 11 Oeste 0 -- -- 74
2021-02-16 11:00:00 11.8 3 Oeste 6 Oeste 0 -- -- 51
2021-02-16 10:00:00 8.3 0 Calma 4 Oeste 0 -- -- 63
2021-02-16 09:00:00 3.3 6 Oeste 9 Oeste 0 -- -- 98
2021-02-16 08:00:00 1 2 Sudeste 5 Sudeste 0 -- -- 98
2021-02-16 07:00:00 2 0 Calma 3 Sudeste 0 -- -- 98
2021-02-16 06:00:00 2.4 2 Sur 6 Sudeste 0 -- -- 98
2021-02-16 05:00:00 2.6 2 Sur 7 Sudoeste 0 -- -- 98
2021-02-16 04:00:00 2.9 2 Sur 13 Sur 0 -- -- 98
2021-02-16 03:00:00 3.2 3 Sur 10 Este 0 -- -- 98
2021-02-16 02:00:00 3.4 4 Sudeste 15 Sudeste 0 -- -- 98
2021-02-16 01:00:00 3.6 2 Sur 16 Sudeste 0 -- -- 98
2021-02-16 00:00:00 3.9 6 Sudeste 15 Sudeste 0 -- -- 98
2021-02-15 23:00:00 4 4 Sudeste 17 Sudeste 0 -- -- 98
2021-02-15 22:00:00 4.1 5 Sudeste 15 Sur 0.2 -- -- 98
2021-02-15 21:00:00 4.3 5 Sudeste 17 Este 0 -- -- 98
2021-02-15 20:00:00 4.4 6 Sudeste 18 Este 0.2 -- -- 98
2021-02-15 19:00:00 4.3 5 Sudeste 14 Sudeste 0.2 -- -- 98
2021-02-15 18:00:00 4.4 5 Este 14 Este 0.2 -- -- 98
2021-02-15 17:00:00 4.5 5 Este 15 Este 0 -- -- 98
2021-02-15 16:00:00 4.7 6 Este 16 Sudeste 0 -- -- 98
2021-02-15 15:00:00 4.7 8 Este 18 Este 0.2 -- -- 98
2021-02-15 14:00:00 4.9 7 Este 18 Este 0.2 -- -- 98
2021-02-15 13:00:00 5 6 Este 18 Sudeste 0.2 -- -- 98
2021-02-15 12:00:00 4.7 4 Sudeste 13 Sudeste 0 -- -- 98
2021-02-15 11:00:00 4.2 5 Sudeste 15 Sudeste 0 -- -- 98
2021-02-15 10:00:00 3.5 4 Este 12 Sudeste 0 -- -- 98
2021-02-15 09:00:00 3.2 3 Sudeste 12 Sudeste 0.2 -- -- 98
2021-02-15 08:00:00 2.6 3 Sudeste 12 Sudeste 0 -- -- 98
2021-02-15 07:00:00 2.4 2 Sudeste 8 Este 0.2 -- -- 98
2021-02-15 06:00:00 2.3 3 Este 9 Sudeste 0 -- -- 98
2021-02-15 05:00:00 2.3 3 Este 10 Sudeste 0.2 -- -- 98
2021-02-15 04:00:00 2.3 3 Este 9 Sudeste 0.2 -- -- 98
2021-02-15 03:00:00 2.2 2 Sudeste 8 Este 0 -- -- 98
2021-02-15 02:00:00 2.1 2 Sudeste 8 Este 0.2 -- -- 98
2021-02-15 01:00:00 1.8 5 Este 12 Este 0 -- -- 98
2021-02-15 00:00:00 1.8 6 Este 16 Este 0.2 -- -- 98
2021-02-14 23:00:00 1.9 8 Este 18 Este 0 -- -- 97
2021-02-14 22:00:00 1.9 11 Este 25 Sudeste 0.4 -- -- 97
2021-02-14 21:00:00 2.2 11 Este 24 Este 0.2 -- -- 97
2021-02-14 20:00:00 2.1 11 Este 27 Este 0.4 -- -- 97
2021-02-14 19:00:00 2.3 13 Este 30 Este 0.4 -- -- 97
2021-02-14 18:00:00 3 12 Este 25 Este 0.6 -- -- 97
2021-02-14 17:00:00 3.5 11 Este 27 Este 0.4 -- -- 97
2021-02-14 16:00:00 3.7 14 Este 26 Este 0.6 -- -- 97
2021-02-14 15:00:00 3.7 9 Este 22 Este 0.6 -- -- 97
2021-02-14 14:00:00 3.5 12 Este 28 Este 0.2 -- -- 97
2021-02-14 13:00:00 3.6 12 Este 31 Este 0 -- -- 96
2021-02-14 12:00:00 3.7 13 Este 27 Este 0.2 -- -- 96
2021-02-14 11:00:00 3.8 6 Este 15 Este 0.2 -- -- 94
2021-02-14 10:00:00 4.8 4 Este 13 Este 0 -- -- 83
2021-02-14 09:00:00 4.2 3 Sudoeste 5 Sudoeste 0 -- -- 84
2021-02-14 08:00:00 2.4 3 Este 4 Este 0 -- -- 91
2021-02-14 07:00:00 2.8 2 Sudeste 5 Oeste 0 -- -- 87
2021-02-14 06:00:00 1.5 0 Calma 10 Noroeste 0 -- -- 89
2021-02-14 05:00:00 1.9 3 Noroeste 18 Oeste 0 -- -- 86
2021-02-14 04:00:00 2.9 6 Oeste 25 Oeste 0 -- -- 81
2021-02-14 03:00:00 3.3 12 Oeste 25 Oeste 0 -- -- 81
2021-02-14 02:00:00 3.4 15 Oeste 35 Oeste 0 -- -- 79
2021-02-14 01:00:00 3.9 24 Oeste 39 Oeste 0 -- -- 76
2021-02-14 00:00:00 4.2 24 Oeste 45 Oeste 0 -- -- 72
2021-02-13 23:00:00 4.8 24 Oeste 49 Noroeste 0 -- -- 70
2021-02-13 22:00:00 5.4 31 Oeste 52 Oeste 0 -- -- 69
2021-02-13 21:00:00 6 25 Oeste 47 Oeste 0 -- -- 70
2021-02-13 20:00:00 5.8 17 Oeste 37 Oeste 0 -- -- 68
2021-02-13 19:00:00 5.9 23 Oeste 40 Noroeste 0 -- -- 70
2021-02-13 18:00:00 6.3 21 Oeste 35 Oeste 0 -- -- 74
2021-02-13 17:00:00 7 16 Noroeste 38 Noroeste 0 -- -- 73
2021-02-13 16:00:00 7.8 21 Oeste 37 Noroeste 0 -- -- 63
2021-02-13 15:00:00 8.4 20 Oeste 39 Oeste 0 -- -- 63
2021-02-13 14:00:00 10.2 14 Oeste 37 Noroeste 0 -- -- 61
2021-02-13 13:00:00 9 19 Noroeste 48 Noroeste 0 -- -- 63
2021-02-13 08:00:00 -- -- -- -- -- -- -- -- --
2021-02-13 07:00:00 -- -- -- -- -- -- -- -- --
2021-02-13 06:00:00 -- -- -- -- -- -- -- -- --
2021-02-13 05:00:00 -- -- -- -- -- -- -- -- --
2021-02-13 04:00:00 4.2 27 Noroeste 62 Noroeste 0 -- -- 88
2021-02-13 03:00:00 4.4 33 Noroeste 87 Oeste 0 -- -- 88
2021-02-13 02:00:00 4.6 49 Noroeste 92 Noroeste 0 -- -- 85
2021-02-13 01:00:00 4.4 59 Noroeste 100 Oeste 0 -- -- 87
2021-02-13 00:00:00 4.7 55 Oeste 98 Noroeste 0 -- -- 84
2021-02-12 23:00:00 4.9 59 Oeste 90 Oeste 0 -- -- 85
2021-02-12 22:00:00 5.1 48 Oeste 89 Oeste 0 -- -- 86
2021-02-12 21:00:00 5.5 53 Oeste 87 Noroeste 0 -- -- 88
2021-02-12 20:00:00 5.6 54 Oeste 99 Oeste 0 -- -- 90
2021-02-12 19:00:00 5.4 57 Oeste 100 Oeste 0 -- -- 92
2021-02-12 18:00:00 4.9 53 Oeste 84 Oeste 0.2 -- -- 95
2021-02-12 17:00:00 4.9 40 Oeste 73 Oeste 0.6 -- -- 95
2021-02-12 16:00:00 5 30 Oeste 67 Noroeste 5.2 -- -- 94
2021-02-12 15:00:00 9.5 33 Noroeste 73 Oeste 0 -- -- 70
2021-02-12 14:00:00 8.6 35 Noroeste 65 Oeste 0.2 -- -- 71
2021-02-12 13:00:00 9.8 28 Noroeste 55 Oeste 0 -- -- 61
2021-02-12 12:00:00 7.5 24 Oeste 55 Oeste 0.2 -- -- 82
2021-02-12 11:00:00 10.8 17 Oeste 34 Oeste 0 -- -- 68
2021-02-12 10:00:00 9.6 13 Oeste 26 Oeste 0 -- -- 71
2021-02-12 09:00:00 8.4 10 Noroeste 26 Oeste 0 -- -- 79
2021-02-12 08:00:00 7.9 12 Oeste 23 Noroeste 0.2 -- -- 83
2021-02-12 07:00:00 8.2 7 Sudoeste 19 Noroeste 0.2 -- -- 80
2021-02-12 06:00:00 7.9 4 Oeste 10 Oeste 0 -- -- 79
2021-02-12 05:00:00 8.6 0 Calma 8 Este 0 -- -- 75
2021-02-12 04:00:00 9.6 5 Sur 18 Sur 0 -- -- 74
2021-02-12 03:00:00 8.8 8 Oeste 13 Oeste 0 -- -- 75
2021-02-12 02:00:00 8.5 9 Oeste 14 Oeste 0 -- -- 73
2021-02-12 01:00:00 8.7 12 Oeste 19 Oeste 0 -- -- 72
2021-02-12 00:00:00 8.2 11 Oeste 18 Noroeste 0 -- -- 74
2021-02-11 23:00:00 8.4 10 Oeste 24 Oeste 0 -- -- 74
2021-02-11 22:00:00 7.9 18 Oeste 28 Noroeste 0 -- -- 77
2021-02-11 21:00:00 8.1 16 Oeste 24 Oeste 0 -- -- 80
2021-02-11 20:00:00 8.1 10 Oeste 19 Oeste 0 -- -- 80
2021-02-11 19:00:00 8.8 10 Oeste 16 Noroeste 0 -- -- 78
2021-02-11 18:00:00 10.8 7 Oeste 31 Oeste 0 -- -- 70
2021-02-11 17:00:00 11.7 10 Oeste 31 Oeste 0 -- -- 66
2021-02-11 16:00:00 13.8 13 Oeste 32 Oeste 0 -- -- 62
2021-02-11 15:00:00 14.4 16 Oeste 36 Oeste 0 -- -- 58
2021-02-11 14:00:00 13.4 17 Oeste 39 Oeste 0 -- -- 61
2021-02-11 13:00:00 12 27 Oeste 52 Oeste 0 -- -- 63
2021-02-11 12:00:00 10.8 21 Oeste 50 Noroeste 0 -- -- 66
2021-02-11 11:00:00 9.6 29 Oeste 62 Oeste 0 -- -- 69
2021-02-11 10:00:00 8.4 29 Oeste 62 Noroeste 0 -- -- 70
2021-02-11 09:00:00 7.2 23 Oeste 56 Oeste 0 -- -- 71
2021-02-11 08:00:00 6.3 32 Oeste 55 Oeste 0 -- -- 57
2021-02-11 07:00:00 5.1 22 Oeste 40 Oeste 0 -- -- 49
2021-02-11 06:00:00 4.7 18 Oeste 45 Noroeste 0 -- -- 56
2021-02-11 05:00:00 5.2 27 Oeste 58 Noroeste 0 -- -- 56
2021-02-11 04:00:00 4.3 30 Noroeste 50 Noroeste 0 -- -- 70
2021-02-11 03:00:00 4.4 25 Noroeste 47 Oeste 0 -- -- 76
2021-02-11 02:00:00 4.6 22 Oeste 52 Oeste 0 -- -- 69
2021-02-11 01:00:00 4.4 30 Oeste 58 Noroeste 0 -- -- 70
2021-02-11 00:00:00 4.3 35 Oeste 57 Oeste 0 -- -- 69
2021-02-10 23:00:00 4 29 Noroeste 47 Oeste 0 -- -- 69
2021-02-10 22:00:00 3.3 18 Oeste 42 Oeste 0 -- -- 72
2021-02-10 21:00:00 3.8 20 Oeste 49 Noroeste 0 -- -- 70
2021-02-10 20:00:00 4.3 29 Oeste 60 Noroeste 0 -- -- 68
2021-02-10 19:00:00 4.6 34 Noroeste 71 Noroeste 0 -- -- 68
2021-02-10 18:00:00 5.2 40 Noroeste 66 Noroeste 0 -- -- 62
2021-02-10 17:00:00 6.3 30 Noroeste 57 Oeste 0 -- -- 61
2021-02-10 16:00:00 7.1 30 Noroeste 67 Noroeste 0 -- -- 64
2021-02-10 15:00:00 5.9 35 Oeste 63 Noroeste 0 -- -- 63
2021-02-10 14:00:00 5.2 32 Noroeste 64 Oeste 0 -- -- 69
2021-02-10 13:00:00 4.1 25 Noroeste 61 Oeste 0 -- -- 75
2021-02-10 12:00:00 4.7 27 Oeste 63 Oeste 0 -- -- 71
2021-02-10 11:00:00 4 39 Oeste 67 Oeste 0 -- -- 76
2021-02-10 10:00:00 3.3 33 Oeste 69 Oeste 0 -- -- 82
2021-02-10 09:00:00 2.2 32 Oeste 61 Oeste 0 -- -- 90
2021-02-10 08:00:00 2.5 28 Oeste 64 Noroeste 1.2 -- -- 90
2021-02-10 07:00:00 3.9 4 Sudoeste 29 Oeste 0 -- -- 77
2021-02-10 06:00:00 4.4 15 Oeste 43 Oeste 0 -- -- 73
2021-02-10 05:00:00 4.2 20 Oeste 46 Oeste 0 -- -- 72
2021-02-10 04:00:00 3.8 21 Oeste 44 Oeste 0 -- -- 71
2021-02-10 03:00:00 3.2 24 Oeste 42 Oeste 0 -- -- 83
2021-02-10 02:00:00 2.7 21 Oeste 37 Oeste 0 -- -- 88
2021-02-10 01:00:00 3.3 17 Oeste 52 Oeste 0 -- -- 82
2021-02-10 00:00:00 4.9 23 Oeste 51 Sudoeste 0 -- -- 71
2021-02-09 23:00:00 4.9 20 Oeste 43 Noroeste 0 -- -- 69
2021-02-09 22:00:00 4.5 18 Oeste 39 Oeste 0 -- -- 73
2021-02-09 21:00:00 4.7 11 Oeste 44 Oeste 0 -- -- 72
2021-02-09 20:00:00 6 23 Oeste 67 Oeste 0 -- -- 66
2021-02-09 19:00:00 6.9 34 Oeste 67 Oeste 0 -- -- 68
2021-02-09 18:00:00 8.4 14 Sudoeste 37 Sur 0 -- -- 66
2021-02-09 17:00:00 7.4 8 Sur 26 Sur 0 -- -- 74
2021-02-09 16:00:00 6.9 4 Sudeste 17 Sudeste 0 -- -- 81
2021-02-09 15:00:00 6.8 7 Este 20 Este 0 -- -- 77
2021-02-09 14:00:00 7.8 7 Sudeste 25 Sur 0 -- -- 66
2021-02-09 13:00:00 7.5 6 Sudeste 19 Sur 0 -- -- 66
2021-02-09 12:00:00 6.2 7 Sudeste 19 Sur 0 -- -- 66
2021-02-09 11:00:00 5.8 5 Sur 25 Sudoeste 0 -- -- 65
2021-02-09 10:00:00 5.5 6 Sudoeste 20 Sudoeste 0 -- -- 68
2021-02-09 09:00:00 4.3 5 Oeste 21 Sudoeste 0 -- -- 73
2021-02-09 08:00:00 3.4 3 Sudoeste 26 Oeste 0 -- -- 77
2021-02-09 07:00:00 3.7 10 Oeste 24 Sudoeste 0 -- -- 76
2021-02-09 06:00:00 3.2 10 Oeste 31 Oeste 0 -- -- 78
2021-02-09 05:00:00 3.2 14 Oeste 39 Oeste 0 -- -- 78
2021-02-09 04:00:00 3.6 19 Oeste 76 Oeste 0 -- -- 77
2021-02-09 03:00:00 4.1 49 Oeste 77 Oeste 0.2 -- -- 71
2021-02-09 02:00:00 3.8 45 Oeste 74 Oeste 0 -- -- 73
2021-02-09 01:00:00 3.6 44 Oeste 76 Oeste 0 -- -- 76
2021-02-09 00:00:00 3.5 35 Oeste 66 Oeste 0 -- -- 76
2021-02-08 23:00:00 3.6 33 Oeste 69 Oeste 0 -- -- 75
2021-02-08 22:00:00 4 25 Oeste 58 Oeste 0 -- -- 75
2021-02-08 21:00:00 4 23 Oeste 57 Oeste 0 -- -- 76
2021-02-08 20:00:00 3.9 29 Oeste 63 Oeste 0 -- -- 74
2021-02-08 19:00:00 4.1 25 Oeste 53 Oeste 0 -- -- 72
2021-02-08 18:00:00 4.5 21 Oeste 60 Oeste 0 -- -- 74
2021-02-08 17:00:00 5.3 17 Oeste 49 Oeste 0 -- -- 70
2021-02-08 16:00:00 7.3 28 Oeste 54 Oeste 0 -- -- 64
2021-02-08 15:00:00 7.4 33 Oeste 65 Oeste 0 -- -- 59
2021-02-08 14:00:00 7.4 27 Oeste 49 Sudoeste 0 -- -- 67
2021-02-08 13:00:00 5.9 24 Oeste 48 Oeste 0 -- -- 86
2021-02-08 12:00:00 3.6 25 Oeste 50 Sudoeste 0.8 -- -- 91
2021-02-08 11:00:00 4.3 9 Oeste 36 Oeste 0.2 -- -- 92
2021-02-08 10:00:00 4 17 Oeste 35 Sudoeste 1.4 -- -- 92
2021-02-08 09:00:00 4.2 6 Sudoeste 26 Oeste 0.6 -- -- 87
2021-02-08 08:00:00 4.8 15 Oeste 41 Sudoeste 0.2 -- -- 83
2021-02-08 07:00:00 5 14 Oeste 32 Sudoeste 0 -- -- 77
2021-02-08 06:00:00 5.1 12 Oeste 32 Oeste 0 -- -- 72
2021-02-08 05:00:00 4.9 15 Oeste 30 Oeste 0 -- -- 73
2021-02-08 04:00:00 4.3 11 Oeste 35 Oeste 0 -- -- 75
2021-02-08 03:00:00 4.3 17 Oeste 38 Oeste 0 -- -- 77
2021-02-08 02:00:00 3.5 11 Oeste 34 Oeste 0 -- -- 80
2021-02-08 01:00:00 3.2 13 Oeste 35 Oeste 0 -- -- 81
2021-02-08 00:00:00 2.9 13 Oeste 32 Oeste 0 -- -- 79
2021-02-07 23:00:00 3.5 15 Oeste 47 Oeste 0 -- -- 75
2021-02-07 22:00:00 3.2 19 Oeste 39 Oeste 0 -- -- 69
2021-02-07 21:00:00 2.8 14 Oeste 31 Oeste 0 -- -- 65
2021-02-07 20:00:00 2.2 11 Oeste 28 Oeste 0 -- -- 65
2021-02-07 19:00:00 2.5 14 Oeste 35 Noroeste 0 -- -- 63
2021-02-07 18:00:00 3.3 15 Oeste 41 Oeste 0 -- -- 62
2021-02-07 17:00:00 4 22 Oeste 39 Oeste 0 -- -- 59
2021-02-07 16:00:00 3.5 19 Oeste 55 Oeste 0 -- -- 62
2021-02-07 15:00:00 3.1 31 Oeste 67 Oeste 0 -- -- 67
2021-02-07 14:00:00 5.2 32 Oeste 67 Noroeste 0 -- -- 61
2021-02-07 13:00:00 3.9 44 Oeste 70 Noroeste 0 -- -- 62
2021-02-07 12:00:00 3.4 39 Oeste 77 Oeste 0 -- -- 66
2021-02-07 11:00:00 1.6 45 Oeste 72 Oeste 0 -- -- 72
2021-02-07 10:00:00 0.3 42 Oeste 70 Oeste 0 -- -- 78
2021-02-07 09:00:00 -1.1 42 Oeste 71 Oeste 0 -- -- 84
2021-02-07 08:00:00 -0.9 41 Oeste 73 Oeste 0 -- -- 86
2021-02-07 07:00:00 -0.5 44 Oeste 74 Oeste 0 -- -- 84
2021-02-07 06:00:00 -0.3 43 Oeste 75 Oeste 0 -- -- 87
2021-02-07 05:00:00 -0.1 44 Oeste 72 Oeste 0 -- -- 87
2021-02-07 04:00:00 0 40 Oeste 69 Oeste 0 -- -- 88
2021-02-07 03:00:00 0.5 44 Oeste 73 Oeste 0 -- -- 90
2021-02-07 02:00:00 0.6 40 Oeste 74 Oeste 0 -- -- 92
2021-02-07 01:00:00 0.8 39 Oeste 67 Oeste 0 -- -- 94
2021-02-07 00:00:00 1.5 37 Oeste 61 Noroeste 0 -- -- 96
2021-02-06 23:00:00 2.2 34 Noroeste 55 Noroeste 0 -- -- 96
2021-02-06 22:00:00 2.6 31 Oeste 48 Oeste 0 -- -- 96
2021-02-06 21:00:00 3.1 27 Oeste 46 Noroeste 0 -- -- 96
2021-02-06 20:00:00 3.8 26 Oeste 42 Oeste 0.6 -- -- 96
2021-02-06 19:00:00 3.9 22 Oeste 36 Noroeste 1.4 -- -- 93
2021-02-06 18:00:00 4.9 3 Noroeste 14 Oeste 4 -- -- 90
2021-02-06 17:00:00 7.9 3 Noroeste 8 Este 0.2 -- -- 87
2021-02-06 16:00:00 8 6 Este 13 Este 0.2 -- -- 85
2021-02-06 15:00:00 9 3 Nordeste 26 Este 0 -- -- 79
2021-02-06 14:00:00 11.5 9 Este 22 Este 0 -- -- 64
2021-02-06 13:00:00 11.8 6 Este 23 Este 0 -- -- 65
2021-02-06 12:00:00 11.8 6 Este 17 Este 0 -- -- 63
2021-02-06 11:00:00 9.2 5 Oeste 12 Oeste 0 -- -- 70
2021-02-06 10:00:00 7.3 4 Oeste 13 Oeste 0 -- -- 78
2021-02-06 09:00:00 5.5 5 Oeste 17 Oeste 0 -- -- 87
2021-02-06 08:00:00 5.1 10 Oeste 21 Oeste 0 -- -- 83
2021-02-06 07:00:00 4.8 11 Oeste 20 Oeste 0 -- -- 89
2021-02-06 06:00:00 5.2 9 Oeste 14 Oeste 0 -- -- 88
2021-02-06 05:00:00 5.9 2 Nordeste 6 Oeste 0 -- -- 86
2021-02-06 04:00:00 7.4 4 Este 20 Este 0 -- -- 80
2021-02-06 03:00:00 7.5 12 Este 30 Este 0 -- -- 76
2021-02-06 02:00:00 7.1 10 Este 23 Este 0 -- -- 81
2021-02-06 01:00:00 7 10 Este 20 Este 0 -- -- 79
2021-02-06 00:00:00 6.7 11 Este 24 Este 0 -- -- 79
2021-02-05 23:00:00 6.4 11 Este 23 Este 0 -- -- 83
2021-02-05 22:00:00 5.6 10 Este 23 Este 0 -- -- 93
2021-02-05 21:00:00 5.1 11 Este 23 Este -- -- -- 96
2021-02-05 20:00:00 4.9 13 Este 28 Este 0 -- -- 97
2021-02-05 19:00:00 5.2 9 Este 21 Este 0 -- -- 97
2021-02-05 18:00:00 5.4 9 Este 24 Este 0 -- -- 97
2021-02-05 17:00:00 5.5 13 Este 25 Este 0 -- -- 97
2021-02-05 16:00:00 5.4 11 Este 30 Este 0 -- -- 97
2021-02-05 15:00:00 5.6 14 Este 27 Este 0 -- -- 96
2021-02-05 14:00:00 5.5 14 Este 26 Este 0 -- -- 96
2021-02-05 13:00:00 5.7 14 Este 26 Este 0 -- -- 96
2021-02-05 12:00:00 5.2 13 Este 30 Este 0 -- -- 95
2021-02-05 11:00:00 5.3 14 Este 25 Este 0 -- -- 93
2021-02-05 10:00:00 8.4 8 Este 17 Sudeste 0 -- -- 77
2021-02-05 09:00:00 7.1 7 Sudeste 20 Este 0 -- -- 74
2021-02-05 08:00:00 7.7 6 Este 21 Este 0 -- -- 69
2021-02-05 07:00:00 8.3 6 Este 14 Este 0 -- -- 65
2021-02-05 06:00:00 8.7 5 Este 14 Este 0 -- -- 64
2021-02-05 05:00:00 7.3 3 Este 10 Este 0 -- -- 67
2021-02-05 04:00:00 8.4 8 Este 15 Este 0 -- -- 71
2021-02-05 03:00:00 11.4 4 Nordeste 9 Nordeste 0 -- -- 46
2021-02-05 02:00:00 10.4 7 Noroeste 9 Oeste 0 -- -- 50
2021-02-05 01:00:00 10.1 7 Oeste 9 Oeste 0 -- -- 54
2021-02-05 00:00:00 9.3 5 Oeste 10 Sudoeste 0 -- -- 57
2021-02-04 23:00:00 9.2 5 Oeste 14 Sudoeste 0 -- -- 58
2021-02-04 22:00:00 8.2 6 Sudoeste 14 Sur 0 -- -- 65
2021-02-04 21:00:00 7.2 2 Sur 6 Este 0 -- -- 73
2021-02-04 20:00:00 6.9 3 Este 14 Sudeste 0 -- -- 79
2021-02-04 19:00:00 7.5 6 Sudeste 18 Sudeste 0 -- -- 79
2021-02-04 18:00:00 7.8 5 Sudeste 15 Este 0 -- -- 84
2021-02-04 17:00:00 9.5 6 Este 18 Este 0 -- -- 83
2021-02-04 16:00:00 9.9 10 Este 21 Este 0 -- -- 79
2021-02-04 15:00:00 10 10 Este 23 Este 0 -- -- 79
2021-02-04 14:00:00 11.4 10 Este 24 Este 0 -- -- 72
2021-02-04 13:00:00 10.3 11 Este 26 Este 0 -- -- 72
2021-02-04 12:00:00 13.4 12 Este 23 Este 0 -- -- 62
2021-02-04 11:00:00 11.2 7 Este 14 Este 0 -- -- 70
2021-02-04 10:00:00 10.6 8 Este 16 Este 0 -- -- 68
2021-02-04 09:00:00 7.6 5 Este 10 Este 0 -- -- 80
2021-02-04 08:00:00 6.3 4 Sudeste 8 Este 0 -- -- 83
2021-02-04 07:00:00 6 2 Este 6 Este 0 -- -- 84
2021-02-04 06:00:00 5.8 0 Calma 7 Este 0 -- -- 85
2021-02-04 05:00:00 5.9 3 Este 9 Sudeste 0 -- -- 84
2021-02-04 04:00:00 6.5 4 Este 10 Sudeste 0 -- -- 82
2021-02-04 03:00:00 7.1 5 Este 10 Este 0 -- -- 80
2021-02-04 02:00:00 6.4 0 Calma 5 Sudeste 0 -- -- 78
2021-02-04 01:00:00 6.4 0 Calma 3 Este 0 -- -- 78
2021-02-04 00:00:00 6.7 0 Calma 4 Este 0 -- -- 78
2021-02-03 23:00:00 7.4 2 Este 4 Nordeste 0 -- -- 78
2021-02-03 22:00:00 8.1 0 Calma 4 Sudeste 0 -- -- 75
2021-02-03 21:00:00 8.3 2 Oeste 13 Oeste 0 -- -- 74
2021-02-03 20:00:00 8.9 8 Oeste 14 Oeste 0 -- -- 72
2021-02-03 19:00:00 9.1 9 Oeste 17 Oeste 0 -- -- 70
2021-02-03 18:00:00 9.6 9 Oeste 15 Oeste 0 -- -- 67
2021-02-03 17:00:00 10.5 11 Oeste 19 Noroeste 0 -- -- 65
2021-02-03 16:00:00 12.6 5 Oeste 11 Oeste 0 -- -- 56
2021-02-03 15:00:00 13.8 4 Oeste 21 Oeste 0 -- -- 50
2021-02-03 14:00:00 13.8 9 Oeste 24 Oeste 0 -- -- 46
2021-02-03 13:00:00 13 8 Oeste 19 Oeste 0 -- -- 47
2021-02-03 12:00:00 12.7 10 Oeste 24 Oeste 0 -- -- 45
2021-02-03 11:00:00 12.8 8 Oeste 21 Sudoeste 0 -- -- 43
2021-02-03 10:00:00 11.5 6 Oeste 20 Sudoeste 0 -- -- 43
2021-02-03 09:00:00 10.6 8 Oeste 30 Oeste 0 -- -- 39
2021-02-03 08:00:00 9.1 15 Oeste 30 Oeste 0 -- -- 42
2021-02-03 07:00:00 7.7 11 Oeste 19 Oeste 0 -- -- 50
2021-02-03 06:00:00 7.2 10 Oeste 21 Oeste 0 -- -- 56
2021-02-03 05:00:00 7.3 6 Oeste 12 Oeste 0 -- -- 60
2021-02-03 04:00:00 7.5 5 Oeste 8 Sudoeste 0 -- -- 73
2021-02-03 03:00:00 8.5 4 Sur 8 Sur 0 -- -- 70
2021-02-03 02:00:00 8 0 Calma 9 Sur 0 -- -- 73
2021-02-03 01:00:00 7.6 4 Sudoeste 9 Oeste 0 -- -- 75
2021-02-03 00:00:00 6.8 8 Oeste 10 Oeste 0 -- -- 80
2021-02-02 23:00:00 7.3 2 Este 4 Este 0 -- -- 78
2021-02-02 22:00:00 7.2 2 Sudoeste 8 Oeste 0 -- -- 78
2021-02-02 21:00:00 7.6 10 Oeste 22 Oeste 0 -- -- 78
2021-02-02 20:00:00 7 8 Sudoeste 11 Sur 0 -- -- 75
2021-02-02 19:00:00 8 0 Calma 5 Sur 0 -- -- 76
2021-02-02 18:00:00 10.5 2 Sudeste 8 Este 0 -- -- 70
2021-02-02 17:00:00 12.6 4 Este 15 Este 0 -- -- 64
2021-02-02 16:00:00 14.1 6 Este 16 Oeste 0 -- -- 60
2021-02-02 15:00:00 14 10 Oeste 24 Oeste 0 -- -- 57
2021-02-02 14:00:00 13.4 14 Oeste 32 Oeste 0 -- -- 59
2021-02-02 13:00:00 12.8 16 Oeste 39 Noroeste 0 -- -- 62
2021-02-02 12:00:00 11.5 23 Noroeste 50 Oeste 0 -- -- 65
2021-02-02 11:00:00 9.9 33 Oeste 68 Noroeste 0 -- -- 69
2021-02-02 10:00:00 8.9 37 Oeste 67 Noroeste 0 -- -- 73
2021-02-02 09:00:00 8.2 36 Oeste 61 Oeste 0 -- -- 75
2021-02-02 08:00:00 7.8 34 Noroeste 52 Oeste 0 -- -- 76
2021-02-02 07:00:00 7.7 29 Oeste 49 Oeste 0 -- -- 78
2021-02-02 06:00:00 7.4 23 Oeste 47 Noroeste 0 -- -- 79
2021-02-02 05:00:00 7.6 26 Oeste 58 Oeste 0 -- -- 77
2021-02-02 04:00:00 7.8 26 Oeste 74 Oeste 0 -- -- 75
2021-02-02 03:00:00 8.1 40 Oeste 68 Noroeste 0 -- -- 73
2021-02-02 02:00:00 8.2 35 Noroeste 71 Noroeste 0 -- -- 71
2021-02-02 01:00:00 8.2 45 Noroeste 82 Noroeste 0 -- -- 69
2021-02-02 00:00:00 7.8 44 Oeste 88 Noroeste 0 -- -- 71
2021-02-01 23:00:00 7.9 48 Oeste 87 Noroeste 0 -- -- 71
2021-02-01 22:00:00 7.8 51 Oeste 95 Oeste 0 -- -- 71
2021-02-01 21:00:00 8.2 47 Oeste 85 Noroeste 0 -- -- 70
2021-02-01 20:00:00 8.6 44 Oeste 89 Oeste 0 -- -- 71
2021-02-01 19:00:00 9.3 51 Oeste 91 Oeste 0 -- -- 69
2021-02-01 18:00:00 9.7 47 Oeste 88 Oeste 0 -- -- 66
2021-02-01 17:00:00 10.6 50 Oeste 79 Noroeste 0 -- -- 62
2021-02-01 16:00:00 11.3 48 Oeste 87 Oeste 0 -- -- 54
2021-02-01 15:00:00 12 39 Oeste 86 Oeste 0 -- -- 52
2021-02-01 14:00:00 11.2 42 Oeste 78 Oeste 0 -- -- 50
2021-02-01 13:00:00 10.8 36 Oeste 72 Oeste 0 -- -- 51
2021-02-01 12:00:00 9.8 29 Oeste 62 Noroeste 0 -- -- 56
2021-02-01 11:00:00 8.6 32 Oeste 68 Oeste 0 -- -- 61
2021-02-01 10:00:00 7.4 30 Oeste 71 Oeste 0 -- -- 66
2021-02-01 09:00:00 6.2 37 Oeste 69 Oeste 0 -- -- 69
2021-02-01 08:00:00 5.9 35 Oeste 69 Oeste 0 -- -- 70
2021-02-01 07:00:00 6.2 35 Oeste 77 Sudoeste 0 -- -- 68
2021-02-01 06:00:00 6.7 37 Oeste 74 Oeste 0 -- -- 66
2021-02-01 05:00:00 7.2 35 Oeste 74 Oeste 0 -- -- 63
2021-02-01 04:00:00 7.7 39 Oeste 84 Oeste 0 -- -- 61
2021-02-01 03:00:00 8 36 Oeste 84 Sudoeste 0 -- -- 61
2021-02-01 02:00:00 8.3 37 Oeste 84 Sudoeste 0 -- -- 63
2021-02-01 01:00:00 8.8 35 Oeste 81 Oeste 0 -- -- 61
2021-02-01 00:00:00 9 33 Oeste 74 Oeste 0 -- -- 63
2021-01-31 23:00:00 9.2 38 Oeste 87 Oeste 0 -- -- 66
2021-01-31 22:00:00 9.2 43 Oeste 78 Oeste 0 -- -- 66
2021-01-31 21:00:00 8.8 40 Oeste 75 Oeste 0 -- -- 72
2021-01-31 20:00:00 8.8 43 Oeste 86 Oeste 0 -- -- 73
2021-01-31 19:00:00 8.5 44 Oeste 85 Oeste 0 -- -- 75
2021-01-31 18:00:00 8.4 42 Oeste 83 Oeste 0 -- -- 76
2021-01-31 17:00:00 9.3 43 Oeste 76 Oeste 0 -- -- 72
2021-01-31 16:00:00 8.8 39 Oeste 89 Oeste 0 -- -- 71
2021-01-31 15:00:00 8.9 48 Oeste 93 Oeste 0 -- -- 67
2021-01-31 14:00:00 8.5 53 Oeste 89 Oeste 0 -- -- 63
2021-01-31 13:00:00 7.7 49 Oeste 83 Oeste 0 -- -- 65
2021-01-31 12:00:00 6.3 45 Oeste 89 Oeste 0 -- -- 67
2021-01-31 11:00:00 4.1 50 Oeste 91 Oeste 0 -- -- 74
2021-01-31 10:00:00 3.7 53 Oeste 89 Oeste 0 -- -- 75
2021-01-31 09:00:00 4 45 Oeste 84 Noroeste 0 -- -- 73
2021-01-31 08:00:00 3.7 35 Oeste 62 Oeste 0 -- -- 74
2021-01-31 07:00:00 3.9 32 Oeste 63 Noroeste 0 -- -- 74
2021-01-31 06:00:00 3.7 26 Oeste 50 Oeste 0 -- -- 74
2021-01-31 05:00:00 3.7 30 Oeste 59 Sudoeste 0 -- -- 74
2021-01-31 04:00:00 3.5 31 Oeste 67 Oeste 0 -- -- 75
2021-01-31 03:00:00 3.3 31 Oeste 70 Oeste 0 -- -- 74
2021-01-31 02:00:00 3.3 33 Oeste 80 Oeste 0 -- -- 76
2021-01-31 01:00:00 3.1 36 Oeste 78 Oeste 0 -- -- 81
2021-01-31 00:00:00 3 35 Oeste 70 Oeste 0 -- -- 85
2021-01-30 23:00:00 3.6 45 Oeste 75 Oeste 0 -- -- 79
2021-01-30 22:00:00 3.1 33 Oeste 57 Oeste 0.6 -- -- 86
2021-01-30 21:00:00 3.1 22 Oeste 71 Oeste 1 -- -- 89
2021-01-30 20:00:00 3.7 24 Oeste 74 Oeste 0.6 -- -- 84
2021-01-30 19:00:00 5.4 28 Oeste 65 Oeste 0 -- -- 64
2021-01-30 18:00:00 5.8 28 Oeste 66 Oeste 0 -- -- 62
2021-01-30 17:00:00 6.3 40 Oeste 78 Oeste 0 -- -- 61
2021-01-30 16:00:00 5.8 36 Oeste 78 Oeste 0 -- -- 80
2021-01-30 15:00:00 6.2 36 Oeste 81 Noroeste 0.8 -- -- 81
2021-01-30 14:00:00 8 42 Oeste 78 Noroeste 0 -- -- 74
2021-01-30 13:00:00 8.9 35 Oeste 66 Sudoeste 0 -- -- 65
2021-01-30 12:00:00 8.2 30 Oeste 75 Oeste 0 -- -- 70
2021-01-30 11:00:00 8.7 35 Oeste 80 Oeste 0 -- -- 69
2021-01-30 10:00:00 7.1 24 Oeste 52 Oeste 0.2 -- -- 82
2021-01-30 09:00:00 7.7 20 Oeste 45 Noroeste 0 -- -- 84
2021-01-30 08:00:00 8.4 20 Oeste 33 Noroeste 0 -- -- 70
2021-01-30 07:00:00 9.3 19 Oeste 41 Oeste 0 -- -- 61
2021-01-30 06:00:00 10.4 24 Oeste 48 Oeste 0 -- -- 55
2021-01-30 05:00:00 10.7 6 Sur 15 Sudeste 0 -- -- 47
2021-01-30 04:00:00 8.6 4 Sudoeste 24 Oeste 0 -- -- 56
2021-01-30 03:00:00 9 13 Oeste 29 Oeste 0 -- -- 60
2021-01-30 02:00:00 9.6 19 Oeste 44 Oeste 0 -- -- 60
2021-01-30 01:00:00 9.5 27 Oeste 46 Oeste 0 -- -- 66
2021-01-30 00:00:00 8.9 21 Oeste 36 Sudoeste 0 -- -- 74